Terminal Aerodrome Forecast
Issued by NWS Blacksburg, VA

Home | Current Version | Previous Version | Text Only | Print | Product List | Glossary On
Versions: 1 2 3 4 5 6 7 8 9 10 11 12 13 14 15
000
FTUS41 KRNK 230520
TAFDAN
TAF
KDAN 230520Z 2306/2406 18010KT P6SM VCSH OVC020 WS020/19040KT
     FM230800 18012KT P6SM VCSH OVC010 WS020/19040KT
     FM230900 19013KT 6SM -SHRA OVC015
     FM231100 20012KT P6SM VCSH OVC015
     FM231400 24010KT P6SM OVC030
     FM231600 24014KT P6SM SCT140
     FM240200 28008KT P6SM SKC=

USA.gov is the U.S. government's official web portal to all federal, state and local government web resources and services.